Time;durP1;ratioP1;P1;durP2;ratioP2;P2;SDS_P1;SDS_P2;PMS_P1;PMS_P2;Temp;Humidity;BMP_temperature;BMP_pressure;BME280_temperature;BME280_humidity;BME280_pressure;Samples;Min_cycle;Max_cycle;Signal;HPM_P1;HPM_P2
2021/12/08 00:02:17;;;;;;;11.37;8.33;;;2.20;99.90;;;;;;5055258;28;20194;-54
2021/12/08 00:04:43;;;;;;;11.97;7.77;;;2.10;99.90;;;;;;5055370;28;20171;-55
2021/12/08 00:07:08;;;;;;;12.17;8.30;;;2.10;99.90;;;;;;5022581;28;20179;-57
2021/12/08 00:09:48;;;;;;;11.80;7.87;;;2.10;99.90;;;;;;5033818;28;20179;-58
2021/12/08 00:14:59;;;;;;;14.23;8.60;;;2.20;99.90;;;;;;5033757;28;20410;-53
2021/12/08 00:17:25;;;;;;;10.47;8.10;;;2.20;99.90;;;;;;5034075;28;20410;-50
2021/12/08 00:19:51;;;;;;;10.50;7.57;;;2.30;99.90;;;;;;5033881;28;20411;-56
2021/12/08 00:22:17;;;;;;;9.70;7.83;;;2.20;99.90;;;;;;5034136;28;20191;-54
2021/12/08 00:24:44;;;;;;;9.77;7.63;;;2.20;99.90;;;;;;5032710;28;20310;-51
2021/12/08 00:27:10;;;;;;;11.53;7.30;;;2.30;99.90;;;;;;5034028;28;20472;-55
2021/12/08 00:29:36;;;;;;;9.43;7.53;;;2.20;99.90;;;;;;5033858;28;20415;-53
2021/12/08 00:32:01;;;;;;;9.77;7.47;;;2.30;99.90;;;;;;5033444;28;20819;-53
2021/12/08 00:34:27;;;;;;;10.53;7.83;;;2.20;99.90;;;;;;5033853;28;20588;-54
2021/12/08 00:36:57;;;;;;;11.17;6.83;;;2.20;99.90;;;;;;5033418;28;20172;-51
2021/12/08 00:39:23;;;;;;;10.27;7.87;;;2.10;99.90;;;;;;5033785;28;20525;-54
2021/12/08 00:41:48;;;;;;;9.33;7.70;;;2.00;99.90;;;;;;5033421;28;20509;-52
2021/12/08 00:44:14;;;;;;;11.37;7.50;;;2.00;99.90;;;;;;5033668;28;20175;-50
2021/12/08 00:46:40;;;;;;;8.97;7.03;;;2.00;99.90;;;;;;5033249;28;20168;-50
2021/12/08 00:49:08;;;;;;;9.30;6.17;;;2.00;99.90;;;;;;5033397;28;20183;-53
2021/12/08 00:51:33;;;;;;;9.40;6.63;;;1.90;99.90;;;;;;5033555;28;20564;-54
2021/12/08 00:53:59;;;;;;;8.93;6.77;;;1.80;99.90;;;;;;5033165;28;20592;-58
2021/12/08 00:56:25;;;;;;;8.97;6.10;;;1.80;99.90;;;;;;5032002;28;20641;-53
2021/12/08 00:58:50;;;;;;;7.63;6.27;;;1.80;99.90;;;;;;5033081;28;20167;-51
2021/12/08 01:01:17;;;;;;;12.60;7.27;;;1.80;99.90;;;;;;5033320;28;20716;-55
2021/12/08 01:03:45;;;;;;;9.20;6.40;;;1.90;99.90;;;;;;5033255;28;20203;-54
2021/12/08 01:06:10;;;;;;;10.80;7.37;;;1.90;99.90;;;;;;5033010;28;20411;-55
2021/12/08 01:08:36;;;;;;;9.97;8.23;;;2.00;99.90;;;;;;5033225;28;20417;-57
2021/12/08 01:11:06;;;;;;;8.93;7.27;;;2.00;99.90;;;;;;5032904;28;20168;-52
2021/12/08 01:13:32;;;;;;;10.13;8.33;;;1.90;99.90;;;;;;5032975;28;20246;-51
2021/12/08 01:15:59;;;;;;;11.47;7.60;;;2.00;99.90;;;;;;5032552;28;20415;-53
2021/12/08 01:18:26;;;;;;;10.80;7.93;;;2.00;99.90;;;;;;5032991;28;20196;-50
2021/12/08 01:20:52;;;;;;;9.53;7.27;;;2.00;99.90;;;;;;5032677;28;20407;-54
2021/12/08 01:23:18;;;;;;;13.43;7.60;;;1.90;99.90;;;;;;5032934;28;20438;-52
2021/12/08 01:25:44;;;;;;;12.10;7.07;;;2.00;99.90;;;;;;5032478;28;20406;-56
2021/12/08 01:28:09;;;;;;;9.60;7.43;;;2.00;99.90;;;;;;5032732;28;20564;-53
2021/12/08 01:30:36;;;;;;;9.43;7.60;;;2.00;99.90;;;;;;5032752;28;20211;-56
2021/12/08 01:33:02;;;;;;;9.87;7.83;;;2.00;99.90;;;;;;5032245;28;20199;-56
2021/12/08 01:35:28;;;;;;;11.83;7.90;;;2.00;99.90;;;;;;5032498;28;20425;-57
2021/12/08 01:37:53;;;;;;;10.27;6.47;;;2.00;99.90;;;;;;5031143;28;20260;-56
2021/12/08 01:40:19;;;;;;;9.00;6.70;;;1.90;99.90;;;;;;5032662;28;20171;-51
2021/12/08 01:42:50;;;;;;;8.53;6.70;;;1.90;99.90;;;;;;5032164;28;20187;-54
2021/12/08 01:48:05;;;;;;;7.77;5.87;;;1.90;99.90;;;;;;5032537;28;20433;-54
2021/12/08 01:50:32;;;;;;;9.50;5.77;;;2.00;99.90;;;;;;5032351;28;20904;-56
2021/12/08 01:52:57;;;;;;;7.70;6.13;;;2.00;99.90;;;;;;5032279;28;20854;-55
2021/12/08 01:55:23;;;;;;;8.37;5.83;;;2.00;99.90;;;;;;5031904;28;20464;-58
2021/12/08 01:57:48;;;;;;;8.93;6.07;;;1.90;99.90;;;;;;5032364;28;20259;-55
2021/12/08 02:00:31;;;;;;;8.40;5.93;;;1.90;99.90;;;;;;5032025;28;20687;-55
2021/12/08 02:02:57;;;;;;;9.63;5.50;;;1.90;99.90;;;;;;5030571;28;20199;-54
2021/12/08 02:05:23;;;;;;;5.97;5.07;;;1.90;99.90;;;;;;5030499;28;20476;-55
2021/12/08 02:07:49;;;;;;;7.83;5.70;;;1.80;99.90;;;;;;5032699;28;20410;-56
2021/12/08 02:10:15;;;;;;;7.80;5.33;;;1.80;99.90;;;;;;5031932;28;20674;-57
2021/12/08 02:12:41;;;;;;;8.67;5.40;;;1.80;99.90;;;;;;5032046;28;20294;-55
2021/12/08 02:15:10;;;;;;;8.33;5.40;;;1.80;99.90;;;;;;5032022;28;20179;-55
2021/12/08 02:17:37;;;;;;;6.50;4.30;;;1.80;99.90;;;;;;5031803;28;20403;-54
2021/12/08 02:20:05;;;;;;;7.27;4.90;;;1.80;99.90;;;;;;5031898;28;20414;-51
2021/12/08 02:22:31;;;;;;;8.13;5.23;;;1.80;99.90;;;;;;5031612;28;20512;-52
2021/12/08 02:24:57;;;;;;;8.33;6.33;;;1.80;99.90;;;;;;5031684;28;20482;-54
2021/12/08 02:27:23;;;;;;;7.20;5.50;;;1.80;99.90;;;;;;5031823;28;20178;-57
2021/12/08 02:29:56;;;;;;;7.07;5.30;;;1.70;99.90;;;;;;5031815;28;20407;-52
2021/12/08 02:48:31;;;;;;;6.07;4.30;;;1.70;99.90;;;;;;5031772;28;20410;-58
2021/12/08 02:50:58;;;;;;;9.23;4.30;;;1.70;99.90;;;;;;5031426;28;20414;-51
2021/12/08 02:53:23;;;;;;;6.60;4.60;;;1.70;99.90;;;;;;5031512;28;20231;-50
2021/12/08 02:55:49;;;;;;;5.70;4.10;;;1.70;99.90;;;;;;5031247;28;20441;-55
2021/12/08 02:58:16;;;;;;;6.73;4.27;;;1.70;99.90;;;;;;5031652;28;20633;-50
2021/12/08 03:00:50;;;;;;;6.17;4.27;;;1.80;99.90;;;;;;5031259;28;20256;-51
2021/12/08 03:03:15;;;;;;;5.23;4.50;;;1.70;99.90;;;;;;5046421;23;20490;-50
2021/12/08 03:05:41;;;;;;;5.03;4.10;;;1.70;99.90;;;;;;5028129;28;20525;-49
2021/12/08 03:08:08;;;;;;;5.53;4.07;;;1.70;99.90;;;;;;5030664;28;20172;-46
2021/12/08 03:10:41;;;;;;;5.17;3.87;;;1.70;99.90;;;;;;5031263;28;20544;-48
2021/12/08 03:13:07;;;;;;;4.63;3.67;;;1.60;99.90;;;;;;5030676;28;20454;-49
2021/12/08 03:15:34;;;;;;;5.20;3.60;;;1.50;99.90;;;;;;5033459;28;20904;-49
2021/12/08 03:17:59;;;;;;;6.60;3.90;;;1.50;99.90;;;;;;5034890;28;20421;-50
2021/12/08 03:20:38;;;;;;;4.40;3.90;;;1.50;99.90;;;;;;5034890;28;20402;-49
2021/12/08 03:23:05;;;;;;;4.73;3.80;;;1.70;99.90;;;;;;5027964;28;20202;-49
2021/12/08 03:25:37;;;;;;;5.30;3.90;;;1.50;99.90;;;;;;5034817;28;20552;-53
2021/12/08 03:28:10;;;;;;;5.07;3.53;;;1.40;99.90;;;;;;5034679;28;20410;-50
2021/12/08 03:30:50;;;;;;;5.37;3.90;;;1.40;99.90;;;;;;5034861;28;20434;-48
2021/12/08 03:33:16;;;;;;;5.63;3.97;;;1.40;99.90;;;;;;5034883;28;20450;-54
2021/12/08 03:35:41;;;;;;;3.63;3.30;;;1.40;99.90;;;;;;5034381;28;20414;-48
2021/12/08 03:38:07;;;;;;;5.00;3.40;;;1.50;99.90;;;;;;5034767;28;20171;-48
2021/12/08 03:40:33;;;;;;;6.10;3.63;;;1.50;99.90;;;;;;5034281;28;20174;-51
2021/12/08 03:42:59;;;;;;;6.57;3.80;;;1.60;99.90;;;;;;5034682;28;20223;-49
2021/12/08 03:45:33;;;;;;;5.10;3.57;;;1.60;99.90;;;;;;5034111;28;20430;-51
2021/12/08 03:48:04;;;;;;;5.90;3.47;;;1.70;99.90;;;;;;5034820;28;20190;-50
2021/12/08 03:50:32;;;;;;;6.20;3.70;;;1.80;99.90;;;;;;5034568;28;20419;-51
2021/12/08 03:52:58;;;;;;;5.30;3.53;;;1.90;99.90;;;;;;5033415;28;20850;-49
2021/12/08 03:55:24;;;;;;;4.40;3.23;;;2.00;99.90;;;;;;5034073;28;20438;-51
2021/12/08 03:57:50;;;;;;;4.67;3.53;;;2.00;99.90;;;;;;5034215;28;20641;-49
2021/12/08 04:00:20;;;;;;;4.53;3.70;;;2.10;99.90;;;;;;5034427;28;20403;-49
2021/12/08 04:02:46;;;;;;;5.97;3.40;;;2.20;99.90;;;;;;5034194;28;20168;-50
2021/12/08 04:05:12;;;;;;;4.20;3.33;;;2.20;99.90;;;;;;5034035;28;20453;-49
2021/12/08 04:07:44;;;;;;;4.00;3.57;;;2.30;99.90;;;;;;5034025;28;20167;-54
2021/12/08 04:10:17;;;;;;;4.47;3.53;;;2.30;99.90;;;;;;5034398;28;20903;-49
2021/12/08 04:12:43;;;;;;;5.87;3.83;;;2.30;99.90;;;;;;5033758;28;20549;-51
2021/12/08 04:15:10;;;;;;;4.13;3.63;;;2.30;99.90;;;;;;5033215;28;20469;-48
2021/12/08 04:17:41;;;;;;;4.03;3.60;;;2.30;99.90;;;;;;5034130;28;20403;-49
2021/12/08 04:20:13;;;;;;;5.23;3.80;;;2.20;99.90;;;;;;5033886;28;20407;-48
2021/12/08 04:22:42;;;;;;;5.10;3.80;;;2.20;99.90;;;;;;5034064;28;20399;-50
2021/12/08 04:25:13;;;;;;;5.37;3.80;;;2.20;99.90;;;;;;5015391;28;20434;-50
2021/12/08 04:27:42;;;;;;;4.43;3.73;;;2.20;99.90;;;;;;5033995;28;20414;-48
2021/12/08 04:30:21;;;;;;;4.27;3.87;;;2.20;99.90;;;;;;5033683;28;20500;-50
2021/12/08 04:32:47;;;;;;;4.83;3.80;;;2.20;99.90;;;;;;5016015;28;20454;-49
2021/12/08 04:35:17;;;;;;;4.60;3.90;;;2.20;99.90;;;;;;5033239;28;20572;-49
2021/12/08 04:37:48;;;;;;;4.77;3.90;;;2.10;99.90;;;;;;5033411;28;20438;-49
2021/12/08 04:40:58;;;;;;;5.80;4.03;;;2.10;99.90;;;;;;5033775;28;20493;-49
2021/12/08 04:43:42;;;;;;;4.90;3.67;;;2.10;99.90;;;;;;5033487;28;20551;-53
2021/12/08 04:46:25;;;;;;;3.80;3.40;;;2.10;99.90;;;;;;5033352;28;20422;-48
2021/12/08 04:49:23;;;;;;;4.70;3.90;;;2.10;99.90;;;;;;5033613;28;20402;-52
2021/12/08 05:05:24;;;;;;;11.07;7.83;;;2.10;99.90;;;;;;5032739;28;20577;-49
2021/12/08 05:07:55;;;;;;;5.73;4.27;;;2.10;99.90;;;;;;5033166;28;20450;-49
2021/12/08 05:10:30;;;;;;;3.93;3.50;;;2.00;99.90;;;;;;5032743;28;20419;-49
2021/12/08 05:12:57;;;;;;;5.40;3.47;;;2.00;99.90;;;;;;5033200;28;20891;-49
2021/12/08 05:15:27;;;;;;;5.13;3.40;;;2.00;99.90;;;;;;5032322;28;20446;-50
2021/12/08 05:17:58;;;;;;;4.10;3.20;;;2.00;99.90;;;;;;5033225;28;20437;-49
2021/12/08 05:20:55;;;;;;;3.97;3.10;;;1.90;99.90;;;;;;5032582;28;20421;-49
2021/12/08 05:23:40;;;;;;;4.43;3.20;;;1.90;99.90;;;;;;5023136;28;20954;-52
2021/12/08 05:26:11;;;;;;;3.80;2.90;;;1.80;99.90;;;;;;5032390;28;20922;-48
2021/12/08 05:28:37;;;;;;;3.17;2.57;;;1.80;99.90;;;;;;5032910;28;20406;-49
2021/12/08 05:31:10;;;;;;;5.57;3.60;;;1.70;99.90;;;;;;5032428;28;20497;-48
2021/12/08 05:33:40;;;;;;;3.90;3.10;;;1.70;99.90;;;;;;5032587;28;20458;-51
2021/12/08 05:36:06;;;;;;;4.77;2.90;;;1.70;99.90;;;;;;5032113;28;20497;-53
2021/12/08 05:38:32;;;;;;;4.33;3.20;;;1.70;99.90;;;;;;5031892;28;20776;-50
2021/12/08 05:41:07;;;;;;;4.07;3.07;;;1.60;99.90;;;;;;5032610;28;20421;-48
2021/12/08 05:43:32;;;;;;;2.80;2.57;;;1.60;99.90;;;;;;5032069;28;20195;-51
2021/12/08 05:45:58;;;;;;;4.20;2.90;;;1.60;99.90;;;;;;5030838;28;20488;-49
2021/12/08 05:48:27;;;;;;;4.90;2.90;;;1.60;99.90;;;;;;5032284;28;20180;-51
2021/12/08 05:50:58;;;;;;;3.57;2.90;;;1.60;99.90;;;;;;5032319;28;20768;-54
2021/12/08 05:53:25;;;;;;;4.23;3.07;;;1.60;99.90;;;;;;5031997;28;21013;-48
2021/12/08 05:55:51;;;;;;;3.50;2.77;;;1.60;99.90;;;;;;5032191;28;20446;-50
2021/12/08 05:58:19;;;;;;;4.30;2.80;;;1.60;99.90;;;;;;5032010;28;20461;-52
2021/12/08 06:01:37;;;;;;;3.40;2.80;;;1.60;99.90;;;;;;5032399;28;20172;-49
2021/12/08 06:04:05;;;;;;;3.90;2.90;;;1.60;99.90;;;;;;4951556;29;20474;-48
2021/12/08 06:06:31;;;;;;;6.07;3.70;;;1.50;99.90;;;;;;4951478;29;20426;-49
2021/12/08 06:08:57;;;;;;;5.30;3.83;;;1.50;99.90;;;;;;4951832;29;20434;-50
2021/12/08 06:11:25;;;;;;;5.37;3.67;;;1.50;99.90;;;;;;4951273;29;20183;-48
2021/12/08 06:13:52;;;;;;;4.93;3.83;;;1.60;99.90;;;;;;4951600;29;20225;-49
2021/12/08 06:16:21;;;;;;;4.17;3.50;;;1.70;99.90;;;;;;4950335;29;20427;-48
2021/12/08 06:18:49;;;;;;;4.40;3.60;;;1.70;99.90;;;;;;4935640;29;20418;-51
2021/12/08 06:21:18;;;;;;;4.17;3.50;;;1.70;99.90;;;;;;4951200;29;20422;-49
2021/12/08 06:23:45;;;;;;;5.10;3.40;;;1.80;99.90;;;;;;4951586;29;20438;-49
2021/12/08 06:26:14;;;;;;;4.83;3.07;;;1.80;99.90;;;;;;4951022;29;20478;-54
2021/12/08 06:28:39;;;;;;;3.70;3.33;;;1.80;99.90;;;;;;4951718;29;20899;-55
2021/12/08 06:31:06;;;;;;;7.50;4.13;;;1.90;99.90;;;;;;4950281;28;20533;-52
2021/12/08 06:33:33;;;;;;;5.23;3.70;;;2.00;99.90;;;;;;4951171;28;20711;-49
2021/12/08 06:36:05;;;;;;;5.50;3.63;;;2.00;99.90;;;;;;4951068;29;20446;-50
2021/12/08 06:38:31;;;;;;;5.30;3.53;;;2.10;99.90;;;;;;4954218;28;21070;-49
2021/12/08 06:41:06;;;;;;;4.03;3.43;;;2.20;99.90;;;;;;5031829;28;20438;-49
2021/12/08 06:43:38;;;;;;;5.20;3.37;;;2.20;99.90;;;;;;5031347;28;20194;-48
2021/12/08 06:46:04;;;;;;;6.73;3.70;;;1.80;99.90;;;;;;5031110;28;20509;-53
2021/12/08 06:48:37;;;;;;;5.90;3.53;;;1.60;99.90;;;;;;5032048;28;20429;-52
2021/12/08 06:51:11;;;;;;;5.17;3.30;;;1.60;99.90;;;;;;5035803;28;20414;-49
2021/12/08 06:53:38;;;;;;;5.30;3.80;;;1.80;99.90;;;;;;5035236;28;20627;-51
2021/12/08 06:56:10;;;;;;;4.57;3.57;;;1.90;99.90;;;;;;5035052;28;20422;-49
2021/12/08 06:58:38;;;;;;;4.07;3.30;;;2.00;99.90;;;;;;5034507;28;20429;-50
2021/12/08 07:01:43;;;;;;;5.17;3.30;;;2.00;99.90;;;;;;5034588;28;20421;-49
2021/12/08 07:07:11;;;;;;;4.80;3.90;;;1.90;99.90;;;;;;5031457;28;20451;-51
2021/12/08 07:09:55;;;;;;;3.87;3.33;;;2.00;99.90;;;;;;5035243;28;20884;-49
2021/12/08 07:12:22;;;;;;;5.07;3.50;;;2.10;99.90;;;;;;5034496;28;20458;-49
2021/12/08 07:14:53;;;;;;;3.77;3.20;;;2.20;99.90;;;;;;5035009;28;20833;-54
2021/12/08 07:17:22;;;;;;;4.90;3.33;;;2.30;99.90;;;;;;5034020;28;20418;-49
2021/12/08 07:20:02;;;;;;;4.13;3.33;;;2.40;99.90;;;;;;5034436;28;20423;-50
2021/12/08 07:22:32;;;;;;;3.20;2.90;;;1.40;99.90;;;;;;5034384;28;20418;-51
2021/12/08 07:25:02;;;;;;;5.33;3.17;;;2.40;99.90;;;;;;5034878;28;20438;-49
2021/12/08 07:27:33;;;;;;;7.83;3.63;;;2.40;99.90;;;;;;5035184;28;20406;-50
2021/12/08 07:30:05;;;;;;;4.10;3.70;;;2.60;99.90;;;;;;5034732;28;20891;-52
2021/12/08 07:32:33;;;;;;;4.00;3.60;;;2.60;99.90;;;;;;5035122;28;20458;-49
2021/12/08 07:35:09;;;;;;;6.50;3.83;;;2.70;99.90;;;;;;5034455;28;20429;-52
2021/12/08 07:37:35;;;;;;;4.70;3.87;;;2.90;99.90;;;;;;5034709;28;20406;-51
2021/12/08 07:40:18;;;;;;;7.33;5.30;;;3.10;99.90;;;;;;5034303;28;20410;-49
2021/12/08 07:42:58;;;;;;;7.77;6.30;;;3.10;99.90;;;;;;5035103;28;20422;-52
2021/12/08 07:45:36;;;;;;;7.70;5.80;;;3.10;99.90;;;;;;5034258;28;20508;-50
2021/12/08 07:48:05;;;;;;;7.27;5.37;;;3.20;99.90;;;;;;5034709;28;20504;-51
2021/12/08 07:50:30;;;;;;;8.43;6.07;;;3.50;99.90;;;;;;5033831;28;20923;-52
2021/12/08 07:52:58;;;;;;;6.63;5.13;;;3.70;99.90;;;;;;5034266;28;20450;-47
2021/12/08 07:55:33;;;;;;;8.23;5.40;;;3.90;99.90;;;;;;5031152;28;20203;-48
2021/12/08 07:58:00;;;;;;;7.57;5.30;;;3.90;99.90;;;;;;5032545;28;20179;-47
2021/12/08 08:00:33;;;;;;;7.10;5.80;;;3.70;99.90;;;;;;5032925;28;20530;-49
2021/12/08 08:02:59;;;;;;;8.80;5.10;;;3.50;99.90;;;;;;5032850;28;20183;-51
2021/12/08 08:05:32;;;;;;;7.17;5.63;;;3.30;99.90;;;;;;5032765;28;20478;-52
2021/12/08 08:08:03;;;;;;;8.30;6.27;;;3.10;99.90;;;;;;5032975;28;20194;-47
2021/12/08 08:10:29;;;;;;;7.73;6.23;;;3.10;99.90;;;;;;5032273;28;20241;-48
2021/12/08 08:13:00;;;;;;;10.70;5.93;;;3.10;99.90;;;;;;5033023;28;20199;-49
2021/12/08 08:15:36;;;;;;;8.93;6.30;;;3.20;99.90;;;;;;5033267;28;20195;-51
2021/12/08 08:18:06;;;;;;;8.97;6.60;;;3.30;99.90;;;;;;5034017;28;20171;-47
2021/12/08 08:20:35;;;;;;;8.10;5.83;;;3.30;99.90;;;;;;5033702;28;20407;-52
2021/12/08 08:23:02;;;;;;;9.73;6.57;;;3.40;99.90;;;;;;5033594;28;20700;-50
2021/12/08 08:25:35;;;;;;;9.30;6.77;;;3.50;99.90;;;;;;5032727;28;20261;-47
2021/12/08 08:28:03;;;;;;;8.03;6.40;;;3.60;99.90;;;;;;5034018;28;20168;-52
2021/12/08 08:30:44;;;;;;;8.97;6.77;;;3.70;99.90;;;;;;5033042;28;20203;-48
2021/12/08 08:33:11;;;;;;;8.70;6.60;;;3.60;99.90;;;;;;5033691;28;20196;-48
2021/12/08 08:35:47;;;;;;;7.60;6.10;;;3.60;99.90;;;;;;5033391;28;20715;-50
2021/12/08 08:38:35;;;;;;;8.23;6.40;;;3.70;99.90;;;;;;5033474;28;20250;-47
2021/12/08 08:41:15;;;;;;;7.90;6.50;;;3.80;99.90;;;;;;5032376;28;20599;-50
2021/12/08 08:43:41;;;;;;;9.30;6.27;;;3.80;99.90;;;;;;5033193;28;20191;-47
2021/12/08 08:46:12;;;;;;;10.23;6.33;;;3.70;99.90;;;;;;5033290;28;20548;-47
2021/12/08 08:48:49;;;;;;;8.10;6.37;;;3.60;99.90;;;;;;5033273;28;20641;-49
2021/12/08 08:51:21;;;;;;;6.70;5.83;;;3.50;99.90;;;;;;5033095;28;20182;-50
2021/12/08 08:53:50;;;;;;;8.03;5.90;;;3.60;99.90;;;;;;5032610;28;20199;-53
2021/12/08 08:56:22;;;;;;;9.37;5.70;;;3.50;99.90;;;;;;5032463;28;20164;-51
2021/12/08 08:58:53;;;;;;;8.03;6.60;;;3.50;99.90;;;;;;5033902;28;20172;-49
2021/12/08 09:01:41;;;;;;;8.30;6.00;;;3.60;99.90;;;;;;5033894;28;20160;-49
2021/12/08 09:04:23;;;;;;;8.50;6.70;;;3.80;99.90;;;;;;5034048;28;20218;-48
2021/12/08 09:06:53;;;;;;;12.40;9.37;;;3.90;99.90;;;;;;5032824;28;20629;-51
2021/12/08 09:09:22;;;;;;;9.70;6.37;;;3.90;99.90;;;;;;5033000;28;20253;-47
2021/12/08 09:11:55;;;;;;;8.00;6.90;;;3.60;99.90;;;;;;5031446;28;20255;-48
2021/12/08 09:14:26;;;;;;;8.50;5.97;;;3.40;99.90;;;;;;5032509;28;20191;-49
2021/12/08 09:16:56;;;;;;;8.37;6.50;;;3.30;99.90;;;;;;5032501;28;20194;-51
2021/12/08 09:19:31;;;;;;;8.57;6.50;;;3.20;99.90;;;;;;5032627;28;20175;-53
2021/12/08 09:22:09;;;;;;;8.30;6.63;;;3.10;99.90;;;;;;5032542;28;20245;-49
2021/12/08 09:24:54;;;;;;;8.57;7.33;;;3.10;99.90;;;;;;5029307;28;20668;-57
2021/12/08 09:27:32;;;;;;;10.23;6.83;;;3.10;99.90;;;;;;5032554;28;20669;-48
2021/12/08 09:30:47;;;;;;;8.70;6.70;;;3.30;99.90;;;;;;5032112;28;20180;-47
2021/12/08 09:33:20;;;;;;;8.43;6.70;;;3.50;99.90;;;;;;5029494;28;20216;-49
2021/12/08 09:35:58;;;;;;;7.83;6.50;;;3.40;99.90;;;;;;5032026;28;20621;-49
2021/12/08 09:38:38;;;;;;;9.60;7.27;;;3.40;99.90;;;;;;5043453;23;20641;-47
2021/12/08 09:41:19;;;;;;;9.80;7.40;;;3.50;99.90;;;;;;5009891;28;20177;-51
2021/12/08 09:43:50;;;;;;;9.27;7.60;;;3.50;99.90;;;;;;5005824;28;20177;-52
2021/12/08 09:46:30;;;;;;;9.23;7.87;;;3.60;99.90;;;;;;5011914;28;20649;-52
2021/12/08 09:48:56;;;;;;;10.40;8.33;;;3.80;99.90;;;;;;5009120;28;20219;-53
2021/12/08 09:51:25;;;;;;;10.60;8.43;;;3.90;99.90;;;;;;5012090;28;20188;-53
2021/12/08 09:53:51;;;;;;;10.20;8.10;;;4.00;99.90;;;;;;5012600;28;20565;-52
2021/12/08 09:56:18;;;;;;;9.87;7.57;;;4.20;99.90;;;;;;5006406;28;20631;-52
2021/12/08 09:58:44;;;;;;;9.80;7.20;;;4.60;99.90;;;;;;5011004;28;20724;-57
2021/12/08 10:01:17;;;;;;;9.07;7.07;;;5.20;99.90;;;;;;5011573;28;20168;-53
2021/12/08 10:03:43;;;;;;;10.33;7.40;;;5.80;99.90;;;;;;5011213;28;20172;-50
2021/12/08 10:06:12;;;;;;;24.10;14.93;;;6.60;99.90;;;;;;5011960;28;20654;-56
2021/12/08 10:08:37;;;;;;;11.87;9.23;;;7.30;99.90;;;;;;5012075;28;20705;-56
2021/12/08 10:11:03;;;;;;;10.80;7.70;;;9.50;99.90;;;;;;5012336;28;20176;-51
2021/12/08 10:13:29;;;;;;;8.77;6.83;;;8.10;99.90;;;;;;5005606;28;20204;-52
2021/12/08 10:15:54;;;;;;;9.50;7.70;;;8.00;99.90;;;;;;5011939;28;20252;-51
2021/12/08 10:18:20;;;;;;;10.13;8.30;;;7.80;99.90;;;;;;5012083;28;20192;-48
2021/12/08 10:20:49;;;;;;;7.93;6.90;;;7.60;99.90;;;;;;5012092;28;20292;-48
2021/12/08 10:23:23;;;;;;;9.37;7.50;;;7.50;99.90;;;;;;5011791;28;20223;-51
2021/12/08 10:25:58;;;;;;;9.70;6.93;;;7.50;99.90;;;;;;5011338;28;20199;-48
2021/12/08 10:28:26;;;;;;;8.13;6.30;;;7.40;99.90;;;;;;5012216;28;20604;-50
2021/12/08 10:30:57;;;;;;;7.37;6.10;;;7.30;99.90;;;;;;5011861;28;20176;-48
2021/12/08 10:36:46;;;;;;;7.53;5.97;;;6.80;99.90;;;;;;5011543;28;20580;-48
2021/12/08 10:39:19;;;;;;;10.27;7.00;;;6.90;99.90;;;;;;5011787;28;20295;-51
2021/12/08 10:42:01;;;;;;;10.27;7.53;;;7.00;99.90;;;;;;5011841;28;20176;-47
2021/12/08 10:44:31;;;;;;;8.43;6.40;;;7.10;99.90;;;;;;5012029;28;20252;-53
2021/12/08 10:46:58;;;;;;;6.27;5.30;;;7.30;99.90;;;;;;5010076;28;20233;-49
2021/12/08 10:54:49;;;;;;;6.67;5.27;;;8.20;99.90;;;;;;5011310;28;20183;-52
2021/12/08 10:57:33;;;;;;;7.03;5.80;;;8.30;99.90;;;;;;5011058;28;20267;-50
2021/12/08 11:00:37;;;;;;;8.10;5.90;;;8.20;99.90;;;;;;5009962;28;20255;-48
2021/12/08 11:03:04;;;;;;;7.33;5.93;;;8.00;99.90;;;;;;4931168;29;20643;-47
2021/12/08 11:05:40;;;;;;;7.87;6.50;;;7.40;99.90;;;;;;4931981;29;20281;-47
2021/12/08 11:08:20;;;;;;;7.80;6.07;;;6.70;99.90;;;;;;4931570;29;20183;-48
2021/12/08 11:10:45;;;;;;;8.30;6.47;;;6.30;99.90;;;;;;4932194;29;20704;-48
2021/12/08 11:13:13;;;;;;;8.20;6.10;;;6.00;99.90;;;;;;4931324;29;20219;-51
2021/12/08 11:15:39;;;;;;;6.73;5.57;;;5.70;99.90;;;;;;4931691;29;20175;-48
2021/12/08 11:18:30;;;;;;;9.27;6.77;;;5.60;99.90;;;;;;4931725;29;20305;-48
2021/12/08 11:21:05;;;;;;;8.00;6.10;;;5.70;99.90;;;;;;4931720;29;20300;-54
2021/12/08 11:23:47;;;;;;;8.13;6.40;;;6.00;99.90;;;;;;4931947;29;20189;-47
2021/12/08 11:26:26;;;;;;;7.23;6.03;;;6.10;99.90;;;;;;4931462;29;20186;-48
2021/12/08 11:29:16;;;;;;;10.37;8.03;;;6.00;99.90;;;;;;4931845;29;20302;-47
2021/12/08 11:31:54;;;;;;;10.63;8.37;;;5.90;99.90;;;;;;4893991;29;20226;-47
2021/12/08 11:34:26;;;;;;;12.80;9.23;;;5.60;99.90;;;;;;4893908;29;20224;-49
2021/12/08 11:36:55;;;;;;;12.77;9.47;;;7.30;99.90;;;;;;4896243;29;20300;-48
2021/12/08 11:39:27;;;;;;;10.50;8.43;;;5.20;99.90;;;;;;4923655;29;20222;-49
2021/12/08 11:41:56;;;;;;;11.10;8.70;;;4.80;99.90;;;;;;4954176;29;20265;-48
2021/12/08 11:44:30;;;;;;;12.17;10.20;;;4.80;99.90;;;;;;4953926;29;20555;-47
2021/12/08 11:46:58;;;;;;;13.97;10.27;;;4.80;99.90;;;;;;4952488;29;20257;-51
2021/12/08 11:49:24;;;;;;;14.37;10.37;;;4.80;99.90;;;;;;4953153;28;20242;-47
2021/12/08 11:52:00;;;;;;;13.90;10.13;;;4.90;99.90;;;;;;4953720;29;20743;-51
2021/12/08 11:54:31;;;;;;;13.60;10.50;;;5.10;99.90;;;;;;4954640;29;20690;-52
2021/12/08 11:57:10;;;;;;;12.93;9.83;;;5.20;99.90;;;;;;4952684;29;20238;-49
2021/12/08 11:59:57;;;;;;;12.27;9.57;;;5.70;99.90;;;;;;4953464;28;20198;-50
2021/12/08 12:02:26;;;;;;;12.47;9.30;;;6.50;99.90;;;;;;4952889;29;20182;-50
2021/12/08 12:04:52;;;;;;;11.83;9.33;;;7.00;99.90;;;;;;4952796;29;20865;-52
2021/12/08 12:07:17;;;;;;;11.60;9.10;;;7.60;99.90;;;;;;4953344;29;20174;-52
2021/12/08 12:09:45;;;;;;;9.87;8.00;;;8.60;99.90;;;;;;5010163;28;20282;-53
2021/12/08 12:12:11;;;;;;;11.27;9.73;;;10.20;99.90;;;;;;5014161;28;20171;-55
2021/12/08 12:14:37;;;;;;;10.40;8.97;;;13.50;99.90;;;;;;5013788;28;20172;-52
2021/12/08 12:17:03;;;;;;;9.67;7.90;;;12.80;99.20;;;;;;5014194;28;20173;-53
2021/12/08 12:19:35;;;;;;;12.10;10.03;;;13.30;96.70;;;;;;5013780;28;20203;-50
2021/12/08 12:22:27;;;;;;;10.50;9.40;;;13.10;94.70;;;;;;5014132;28;20170;-54
2021/12/08 12:25:12;;;;;;;9.17;8.13;;;12.20;96.50;;;;;;5013393;28;20167;-54
2021/12/08 12:27:47;;;;;;;8.97;7.90;;;12.80;97.90;;;;;;5014256;28;20203;-55
2021/12/08 12:30:29;;;;;;;8.50;7.43;;;12.70;96.30;;;;;;5013868;28;20188;-50
2021/12/08 12:32:55;;;;;;;8.80;7.70;;;12.70;95.30;;;;;;5014061;28;20288;-51
2021/12/08 12:35:28;;;;;;;8.53;7.30;;;12.80;95.50;;;;;;5013663;28;20177;-52
2021/12/08 12:38:06;;;;;;;8.63;7.67;;;12.70;95.20;;;;;;5013926;28;20221;-49
2021/12/08 12:40:46;;;;;;;8.20;7.13;;;12.60;95.20;;;;;;5013655;28;20730;-52
2021/12/08 12:43:27;;;;;;;9.43;8.13;;;12.30;94.80;;;;;;5013953;28;20173;-53
2021/12/08 12:46:03;;;;;;;9.20;7.97;;;11.70;95.30;;;;;;5013141;28;20176;-53
2021/12/08 12:48:30;;;;;;;9.53;7.73;;;11.20;95.80;;;;;;5013795;28;20692;-53
2021/12/08 12:51:03;;;;;;;9.37;7.60;;;10.70;96.40;;;;;;5013817;28;20180;-50
2021/12/08 12:53:45;;;;;;;9.40;8.03;;;10.30;96.70;;;;;;5013422;28;20212;-49
2021/12/08 12:56:37;;;;;;;9.50;7.90;;;9.90;97.10;;;;;;5013108;28;20323;-53
2021/12/08 12:59:11;;;;;;;11.10;8.63;;;9.50;97.90;;;;;;5013092;28;20243;-50
2021/12/08 13:01:44;;;;;;;10.50;7.80;;;9.30;98.40;;;;;;5013794;28;20526;-50
2021/12/08 13:04:24;;;;;;;9.83;8.23;;;9.00;98.00;;;;;;5013088;28;20173;-49
2021/12/08 13:06:57;;;;;;;9.23;7.90;;;8.90;98.60;;;;;;5012095;28;20234;-49
2021/12/08 13:09:52;;;;;;;9.00;7.60;;;8.70;98.50;;;;;;5012679;28;20196;-55
2021/12/08 13:12:23;;;;;;;10.43;8.07;;;8.50;98.90;;;;;;5012510;28;20171;-52
2021/12/08 13:15:07;;;;;;;10.87;9.13;;;8.20;98.30;;;;;;5012606;28;20172;-55
2021/12/08 13:17:33;;;;;;;9.83;8.43;;;7.90;99.70;;;;;;5013440;28;20176;-52
2021/12/08 13:20:01;;;;;;;11.23;8.77;;;7.90;99.80;;;;;;5013108;28;20570;-53
2021/12/08 13:23:00;;;;;;;15.60;13.60;;;8.00;99.40;;;;;;5013269;28;20523;-53
2021/12/08 13:26:03;;;;;;;15.93;12.03;;;7.90;99.40;;;;;;5012560;28;20169;-53
2021/12/08 13:28:36;;;;;;;9.77;7.87;;;8.10;99.50;;;;;;5013215;28;20187;-53
2021/12/08 13:31:19;;;;;;;10.63;8.50;;;8.10;99.20;;;;;;5012610;28;20168;-51
2021/12/08 13:33:52;;;;;;;12.37;8.97;;;8.00;99.20;;;;;;5013089;28;20218;-50
2021/12/08 13:36:20;;;;;;;10.30;8.17;;;7.90;99.40;;;;;;5012528;28;20226;-47
2021/12/08 13:38:58;;;;;;;10.27;8.17;;;8.00;99.20;;;;;;5011518;28;20204;-51
2021/12/08 13:41:32;;;;;;;9.73;8.10;;;7.90;99.50;;;;;;5012797;28;20680;-49
2021/12/08 13:43:58;;;;;;;9.83;8.13;;;7.80;99.30;;;;;;5012798;28;20181;-50
2021/12/08 13:46:48;;;;;;;10.23;8.17;;;7.60;99.80;;;;;;5012413;28;20231;-52
2021/12/08 13:49:26;;;;;;;10.57;8.53;;;7.50;99.90;;;;;;5012417;28;20204;-50
2021/12/08 13:52:07;;;;;;;10.23;8.50;;;7.30;99.90;;;;;;5012497;28;20179;-52
2021/12/08 13:54:41;;;;;;;11.50;9.20;;;7.00;99.90;;;;;;5011606;28;20310;-51
2021/12/08 13:57:39;;;;;;;11.33;9.30;;;6.70;99.90;;;;;;5012281;28;20179;-49
2021/12/08 14:00:13;;;;;;;14.40;11.00;;;6.40;99.90;;;;;;5012259;28;20228;-48
2021/12/08 14:02:38;;;;;;;14.87;10.63;;;6.00;99.90;;;;;;5012222;28;20180;-50
2021/12/08 14:05:19;;;;;;;15.47;12.27;;;5.40;99.90;;;;;;5012330;28;20308;-53